Time;durP1;ratioP1;P1;durP2;ratioP2;P2;SDS_P1;SDS_P2;PMS_P1;PMS_P2;Temp;Humidity;BMP_temperature;BMP_pressure;BME280_temperature;BME280_humidity;BME280_pressure;Samples;Min_cycle;Max_cycle;Signal;HPM_P1;HPM_P2
2023/03/10 00:01:33;;;;;;;5.20;3.50;;;;;;;11.21;100.00;96711.53;5129718;27;20038;-78
2023/03/10 00:04:00;;;;;;;5.55;3.53;;;;;;;11.19;100.00;96708.13;5124490;27;20520;-78
2023/03/10 00:06:28;;;;;;;7.85;3.67;;;;;;;11.15;100.00;96708.47;5125218;27;20046;-78
2023/03/10 00:08:54;;;;;;;4.82;3.10;;;;;;;11.02;100.00;96695.19;5123323;27;20023;-78
2023/03/10 00:11:19;;;;;;;7.65;3.55;;;;;;;10.77;100.00;96698.91;5133770;27;20049;-78
2023/03/10 00:13:45;;;;;;;6.75;3.63;;;;;;;10.63;100.00;96692.91;5127961;27;20034;-78
2023/03/10 00:16:19;;;;;;;8.50;3.50;;;;;;;10.61;100.00;96702.88;5116353;27;20027;-78
2023/03/10 00:18:46;;;;;;;6.90;3.40;;;;;;;10.55;100.00;96692.66;5116196;27;20063;-78
2023/03/10 00:21:17;;;;;;;7.22;3.60;;;;;;;10.51;100.00;96702.72;5099766;27;20019;-78
2023/03/10 00:23:43;;;;;;;6.38;3.80;;;;;;;10.44;100.00;96688.09;5111687;27;20035;-78
2023/03/10 00:26:10;;;;;;;6.65;3.80;;;;;;;10.37;100.00;96692.19;5103251;27;20042;-78
2023/03/10 00:28:36;;;;;;;7.80;3.95;;;;;;;10.37;100.00;96694.03;5133253;27;20031;-78
2023/03/10 00:31:05;;;;;;;6.80;4.30;;;;;;;10.34;100.00;96709.31;5141738;27;20015;-78
2023/03/10 00:33:32;;;;;;;6.80;4.15;;;;;;;10.35;100.00;96696.81;5126086;27;20021;-78
2023/03/10 00:36:06;;;;;;;7.68;5.00;;;;;;;10.27;100.00;96691.19;5099058;27;20026;-78
2023/03/10 00:38:32;;;;;;;8.30;4.20;;;;;;;10.19;100.00;96691.75;5116258;27;20031;-77
2023/03/10 00:41:04;;;;;;;7.75;4.20;;;;;;;10.18;100.00;96703.38;5124435;27;20126;-78
2023/03/10 00:43:30;;;;;;;10.40;4.55;;;;;;;10.18;100.00;96697.22;5120258;27;20035;-77
2023/03/10 00:45:55;;;;;;;8.48;4.97;;;;;;;10.27;100.00;96705.38;5098425;27;20060;-77
2023/03/10 00:48:21;;;;;;;11.07;6.07;;;;;;;10.28;100.00;96695.53;5102837;27;20111;-78
2023/03/10 00:50:47;;;;;;;12.32;6.53;;;;;;;10.36;100.00;96695.00;5124594;27;20019;-77
2023/03/10 00:53:12;;;;;;;9.25;5.38;;;;;;;10.28;100.00;96683.03;5106962;27;20050;-78
2023/03/10 00:55:38;;;;;;;13.52;5.80;;;;;;;10.29;100.00;96687.44;5121219;27;20026;-78
2023/03/10 00:58:03;;;;;;;12.32;5.55;;;;;;;10.21;100.00;96680.94;5133919;27;20376;-78
2023/03/10 01:00:39;;;;;;;10.90;5.65;;;;;;;10.18;100.00;96682.00;5129884;27;20031;-78
2023/03/10 01:03:10;;;;;;;8.10;4.97;;;;;;;10.11;100.00;96680.75;5112164;27;20023;-78
2023/03/10 01:05:36;;;;;;;9.98;5.13;;;;;;;10.01;100.00;96671.69;5102847;27;20023;-77
2023/03/10 01:08:01;;;;;;;7.95;5.20;;;;;;;9.96;100.00;96673.88;5117603;27;20030;-78
2023/03/10 01:10:27;;;;;;;12.70;5.03;;;;;;;9.69;100.00;96666.03;5158201;27;20547;-76
2023/03/10 01:12:52;;;;;;;9.05;4.80;;;;;;;9.75;100.00;96683.44;5133728;27;20075;-78
2023/03/10 01:15:18;;;;;;;8.40;4.18;;;;;;;9.67;100.00;96697.34;5102079;27;20035;-78
2023/03/10 01:17:43;;;;;;;8.45;4.25;;;;;;;9.59;100.00;96686.38;5149332;27;20034;-76
2023/03/10 01:20:13;;;;;;;11.30;4.35;;;;;;;9.55;100.00;96681.34;5103757;27;20059;-78
2023/03/10 01:22:39;;;;;;;7.35;4.50;;;;;;;9.54;100.00;96698.31;5114258;27;20047;-77
2023/03/10 01:25:05;;;;;;;9.55;5.32;;;;;;;9.48;100.00;96706.75;5132360;27;20110;-77
2023/03/10 01:27:31;;;;;;;9.02;5.03;;;;;;;9.45;100.00;96709.66;5129052;27;20051;-77
2023/03/10 01:29:56;;;;;;;9.88;5.82;;;;;;;9.47;100.00;96703.25;5120264;27;20022;-78
2023/03/10 01:32:22;;;;;;;12.15;6.63;;;;;;;9.55;100.00;96710.72;5118819;27;20034;-78
2023/03/10 01:34:47;;;;;;;14.88;7.57;;;;;;;9.57;100.00;96706.09;5138584;27;20087;-77
2023/03/10 01:37:13;;;;;;;14.70;6.85;;;;;;;9.57;100.00;96690.94;5120655;27;20035;-78
2023/03/10 01:39:38;;;;;;;12.57;6.75;;;;;;;9.54;100.00;96691.16;5131897;27;20027;-77
2023/03/10 01:42:04;;;;;;;12.90;6.82;;;;;;;9.56;100.00;96681.25;5133161;27;20027;-77
2023/03/10 01:44:30;;;;;;;15.38;7.68;;;;;;;9.60;100.00;96689.88;5131645;27;20079;-77
2023/03/10 01:46:57;;;;;;;12.18;6.80;;;;;;;9.54;100.00;96687.63;5131721;27;20023;-75
2023/03/10 01:49:43;;;;;;;16.30;7.22;;;;;;;9.52;100.00;96692.25;5163304;27;20027;-76
2023/03/10 01:52:16;;;;;;;15.13;6.55;;;;;;;9.45;100.00;96691.81;5127512;27;20027;-78
2023/03/10 01:54:48;;;;;;;12.10;6.47;;;;;;;9.37;100.00;96698.66;5129058;27;20019;-77
2023/03/10 01:57:16;;;;;;;11.85;7.28;;;;;;;9.26;100.00;96692.25;5125130;27;20038;-77
2023/03/10 01:59:42;;;;;;;13.15;7.25;;;;;;;9.22;100.00;96693.47;5114264;27;20030;-76
2023/03/10 02:02:08;;;;;;;12.40;6.43;;;;;;;9.21;100.00;96701.56;5130560;27;20077;-77
2023/03/10 02:04:38;;;;;;;11.52;6.78;;;;;;;9.21;100.00;96709.56;5130346;27;20030;-76
2023/03/10 02:07:04;;;;;;;22.80;6.88;;;;;;;9.15;100.00;96705.50;5123020;27;20031;-77
2023/03/10 02:09:32;;;;;;;11.85;6.18;;;;;;;9.14;100.00;96708.28;5144319;27;20403;-76
2023/03/10 02:11:58;;;;;;;14.60;6.72;;;;;;;9.11;100.00;96711.16;5099214;27;20083;-78
2023/03/10 02:14:23;;;;;;;12.18;7.32;;;;;;;9.06;100.00;96710.63;5132405;27;20486;-78
2023/03/10 02:16:49;;;;;;;11.73;6.88;;;;;;;9.06;100.00;96710.63;5130418;27;20086;-77
2023/03/10 02:19:25;;;;;;;9.90;5.78;;;;;;;8.98;100.00;96708.47;5114027;27;20528;-78
2023/03/10 02:22:08;;;;;;;10.25;5.63;;;;;;;8.92;100.00;96697.41;5137547;27;20106;-77
2023/03/10 02:25:07;;;;;;;11.82;5.55;;;;;;;8.90;100.00;96700.16;5120686;27;20046;-77
2023/03/10 02:27:33;;;;;;;11.13;5.55;;;;;;;8.70;100.00;96696.19;5132098;27;20110;-77
2023/03/10 02:30:11;;;;;;;14.20;5.72;;;;;;;8.66;100.00;96704.50;5114730;27;20035;-77
2023/03/10 02:32:46;;;;;;;10.95;5.38;;;;;;;8.69;100.00;96701.66;5130725;27;20035;-77
2023/03/10 02:35:12;;;;;;;11.48;5.35;;;;;;;8.71;100.00;96694.38;5118814;27;20019;-76
2023/03/10 02:37:38;;;;;;;7.97;4.28;;;;;;;8.66;100.00;96702.72;5122490;27;20122;-77
2023/03/10 02:40:30;;;;;;;8.55;4.97;;;;;;;8.67;100.00;96685.75;5115802;27;20515;-77
2023/03/10 02:42:57;;;;;;;11.27;5.73;;;;;;;8.80;100.00;96691.09;5154323;27;20046;-78
2023/03/10 02:45:25;;;;;;;10.38;5.65;;;;;;;8.80;100.00;96687.59;5145224;27;20403;-77
2023/03/10 02:47:50;;;;;;;11.70;5.95;;;;;;;8.86;100.00;96682.66;5131814;27;20069;-76
2023/03/10 02:50:17;;;;;;;8.27;4.80;;;;;;;8.88;100.00;96680.75;5130775;27;20020;-77
2023/03/10 02:52:46;;;;;;;9.52;4.90;;;;;;;8.85;100.00;96680.97;5114579;28;20031;-77
2023/03/10 02:55:16;;;;;;;8.02;5.30;;;;;;;8.92;100.00;96681.41;5113707;28;20550;-78
2023/03/10 02:57:42;;;;;;;10.82;5.55;;;;;;;8.90;100.00;96680.66;5113386;28;20050;-78
2023/03/10 03:00:10;;;;;;;10.68;5.05;;;;;;;8.88;100.00;96670.09;5119911;28;20490;-77
2023/03/10 03:02:35;;;;;;;9.35;4.97;;;;;;;8.95;100.00;96674.03;5113563;28;20031;-78
2023/03/10 03:05:01;;;;;;;13.55;5.50;;;;;;;8.94;100.00;96666.16;5114689;28;20027;-78
2023/03/10 03:07:27;;;;;;;9.52;5.00;;;;;;;8.88;100.00;96663.91;5130683;27;20478;-77
2023/03/10 03:09:52;;;;;;;11.20;5.40;;;;;;;8.92;100.00;96662.75;5124918;28;20020;-78
2023/03/10 03:12:18;;;;;;;16.98;7.22;;;;;;;8.99;100.00;96672.00;5118750;28;20092;-77
2023/03/10 03:14:43;;;;;;;11.55;5.97;;;;;;;8.93;100.00;96667.97;5111621;28;20027;-76
2023/03/10 03:17:09;;;;;;;10.48;5.85;;;;;;;8.84;100.00;96676.59;5115136;28;20039;-78
2023/03/10 03:19:34;;;;;;;14.75;5.10;;;;;;;8.76;100.00;96676.28;5131475;27;20080;-76
2023/03/10 03:22:00;;;;;;;9.20;5.30;;;;;;;8.73;100.00;96676.50;5096406;27;20023;-77
2023/03/10 03:24:26;;;;;;;11.73;6.80;;;;;;;8.72;100.00;96688.09;5130496;27;20038;-77
2023/03/10 03:26:51;;;;;;;15.93;7.80;;;;;;;8.77;100.00;96693.13;5117076;27;20026;-78
2023/03/10 03:29:17;;;;;;;19.88;7.78;;;;;;;8.69;100.00;96680.31;5135712;27;20027;-77
2023/03/10 03:31:42;;;;;;;18.60;6.82;;;;;;;8.68;100.00;96683.94;5111900;27;20027;-77
2023/03/10 03:34:08;;;;;;;14.05;7.15;;;;;;;8.72;100.00;96685.44;5135521;27;20079;-76
2023/03/10 03:36:33;;;;;;;17.38;7.35;;;;;;;8.87;100.00;96692.38;5102809;27;20031;-77
2023/03/10 03:38:59;;;;;;;16.40;7.53;;;;;;;8.95;100.00;96686.53;5099850;27;20050;-77
2023/03/10 03:41:25;;;;;;;17.25;7.80;;;;;;;8.86;100.00;96674.66;5135544;27;20098;-78
2023/03/10 03:43:50;;;;;;;16.73;8.07;;;;;;;8.96;100.00;96685.56;5116966;27;20031;-77
2023/03/10 03:46:16;;;;;;;12.65;6.85;;;;;;;8.98;100.00;96679.16;5143495;27;20023;-78
2023/03/10 03:48:41;;;;;;;14.35;7.38;;;;;;;8.92;100.00;96671.56;5116919;27;20076;-78
2023/03/10 03:51:07;;;;;;;17.00;8.77;;;;;;;8.95;100.00;96676.69;5119127;27;20023;-77
2023/03/10 03:53:33;;;;;;;25.48;8.15;;;;;;;8.91;100.00;96672.56;5135098;27;20422;-78
2023/03/10 03:55:58;;;;;;;24.30;9.43;;;;;;;8.97;100.00;96674.78;5116427;27;20038;-77
2023/03/10 03:58:24;;;;;;;21.13;10.32;;;;;;;9.00;100.00;96679.91;5125347;27;20015;-77
2023/03/10 04:00:50;;;;;;;19.15;9.25;;;;;;;8.92;100.00;96658.25;5131186;27;20023;-76
2023/03/10 04:03:15;;;;;;;19.08;10.00;;;;;;;9.05;100.00;96669.75;5133760;27;20027;-78
2023/03/10 04:05:41;;;;;;;19.05;9.73;;;;;;;9.02;100.00;96675.31;5133809;27;20034;-77
2023/03/10 04:08:07;;;;;;;37.72;14.65;;;;;;;8.97;100.00;96676.59;5134343;27;20023;-77
2023/03/10 04:10:35;;;;;;;39.65;15.40;;;;;;;8.92;100.00;96678.75;5122330;27;20012;-77
2023/03/10 04:13:01;;;;;;;53.35;17.08;;;;;;;8.93;100.00;96677.75;5115888;27;20031;-78
2023/03/10 04:15:26;;;;;;;37.35;15.23;;;;;;;9.02;100.00;96688.66;5116460;27;20027;-77
2023/03/10 04:17:52;;;;;;;28.05;13.93;;;;;;;9.05;100.00;96680.44;5107762;27;20030;-78
2023/03/10 04:20:17;;;;;;;28.23;13.60;;;;;;;9.10;100.00;96675.66;5134937;27;20390;-78
2023/03/10 04:22:43;;;;;;;36.33;16.20;;;;;;;9.04;100.00;96680.56;5103786;27;20066;-78
2023/03/10 04:25:09;;;;;;;36.92;17.40;;;;;;;9.05;100.00;96671.56;5127895;27;20119;-79
2023/03/10 04:27:34;;;;;;;39.90;19.35;;;;;;;9.02;100.00;96679.78;5098563;27;20034;-77
2023/03/10 04:30:00;;;;;;;41.15;19.60;;;;;;;8.91;100.00;96669.88;5122757;27;20015;-77
2023/03/10 04:32:25;;;;;;;35.50;15.35;;;;;;;8.82;100.00;96659.84;5115903;27;20114;-78
2023/03/10 04:34:51;;;;;;;27.13;11.57;;;;;;;8.82;100.00;96665.19;5125744;27;20110;-78
2023/03/10 04:37:17;;;;;;;22.10;10.00;;;;;;;8.82;100.00;96659.00;5126946;27;20057;-77
2023/03/10 04:39:42;;;;;;;19.95;9.50;;;;;;;8.74;100.00;96656.84;5115867;27;20031;-78
2023/03/10 04:42:08;;;;;;;23.52;9.57;;;;;;;8.82;100.00;96659.00;5129155;27;20023;-77
2023/03/10 04:44:34;;;;;;;22.45;10.57;;;;;;;8.83;100.00;96655.38;5127360;27;20023;-78
2023/03/10 04:46:59;;;;;;;26.55;12.75;;;;;;;8.69;100.00;96653.66;5119117;27;20443;-82
2023/03/10 04:49:25;;;;;;;20.48;10.63;;;;;;;8.73;100.00;96659.63;5117086;27;20027;-88
2023/03/10 04:51:57;;;;;;;24.67;11.82;;;;;;;8.76;100.00;96662.94;5104401;27;20591;-87
2023/03/10 04:54:23;;;;;;;27.53;11.77;;;;;;;8.67;100.00;96658.25;5123827;27;20469;-89
2023/03/10 04:56:48;;;;;;;30.08;11.68;;;;;;;8.71;100.00;96667.72;5100440;27;20253;-88
2023/03/10 04:59:14;;;;;;;31.52;13.65;;;;;;;8.68;100.00;96658.13;5125151;27;20410;-88
2023/03/10 05:01:39;;;;;;;26.23;11.73;;;;;;;8.76;100.00;96654.09;5109251;27;20550;-88
2023/03/10 05:04:05;;;;;;;28.45;12.98;;;;;;;8.73;100.00;96644.50;5110216;27;20015;-89
2023/03/10 05:06:31;;;;;;;36.58;14.05;;;;;;;8.78;100.00;96647.69;5127041;27;20023;-87
2023/03/10 05:08:57;;;;;;;37.30;12.05;;;;;;;8.86;100.00;96632.00;5113275;27;20030;-87
2023/03/10 05:11:22;;;;;;;29.88;11.63;;;;;;;8.85;100.00;96634.78;5098677;27;20092;-87
2023/03/10 05:13:49;;;;;;;30.85;11.32;;;;;;;8.96;100.00;96648.22;5099567;27;20019;-88
2023/03/10 05:16:17;;;;;;;30.73;14.95;;;;;;;9.01;100.00;96641.59;5116262;27;20027;-88
2023/03/10 05:18:42;;;;;;;34.67;13.63;;;;;;;9.08;100.00;96640.22;5128631;27;20447;-88
2023/03/10 05:21:08;;;;;;;25.63;12.40;;;;;;;9.09;100.00;96630.41;5119323;27;20023;-88
2023/03/10 05:23:34;;;;;;;26.13;11.85;;;;;;;9.10;100.00;96629.44;5120068;27;20043;-89
2023/03/10 05:26:05;;;;;;;16.98;9.85;;;;;;;9.09;100.00;96619.72;5106134;27;20454;-84
2023/03/10 05:28:31;;;;;;;23.15;9.73;;;;;;;9.11;100.00;96624.00;5104918;27;20031;-86
2023/03/10 05:30:57;;;;;;;71.13;31.38;;;;;;;9.18;100.00;96617.25;5111768;27;20023;-88
2023/03/10 05:33:22;;;;;;;48.05;24.77;;;;;;;9.29;100.00;96627.16;5103621;27;20399;-85
2023/03/10 05:35:48;;;;;;;32.13;14.10;;;;;;;9.24;100.00;96608.81;5112498;27;20067;-87
2023/03/10 05:38:14;;;;;;;52.42;18.83;;;;;;;9.40;100.00;96621.91;5103432;27;20042;-85
2023/03/10 05:40:40;;;;;;;56.70;28.33;;;;;;;9.55;100.00;96620.81;5113972;27;20031;-85
2023/03/10 05:43:06;;;;;;;41.55;22.05;;;;;;;9.67;100.00;96611.03;5129327;27;20027;-84
2023/03/10 05:45:32;;;;;;;59.95;26.08;;;;;;;9.77;100.00;96609.41;5132275;27;20022;-87
2023/03/10 05:47:57;;;;;;;81.18;36.00;;;;;;;9.98;100.00;96610.47;5119822;27;20015;-88
2023/03/10 05:50:23;;;;;;;54.92;25.70;;;;;;;10.04;100.00;96601.16;5116289;27;20015;-88
2023/03/10 05:52:48;;;;;;;66.03;27.42;;;;;;;10.29;100.00;96599.22;5127550;27;20027;-89
2023/03/10 05:55:16;;;;;;;61.75;28.55;;;;;;;10.36;100.00;96582.72;5118350;27;20027;-88
2023/03/10 05:57:42;;;;;;;69.28;29.42;;;;;;;10.55;100.00;96583.84;5112939;27;20023;-88
2023/03/10 06:00:09;;;;;;;56.20;24.83;;;;;;;10.91;100.00;96582.81;5118469;27;20038;-87
2023/03/10 06:02:36;;;;;;;74.70;28.27;;;;;;;11.16;100.00;96569.19;5107109;27;20034;-88
2023/03/10 06:05:02;;;;;;;53.17;25.35;;;;;;;11.22;100.00;96558.00;5113189;27;20478;-89
2023/03/10 06:07:28;;;;;;;36.88;15.10;;;;;;;11.30;100.00;96542.16;5112736;27;20031;-89
2023/03/10 06:09:53;;;;;;;30.60;13.38;;;;;;;11.57;100.00;96540.88;5141969;27;20030;-89
2023/03/10 06:12:20;;;;;;;62.50;32.58;;;;;;;12.16;100.00;96534.13;5108516;27;20039;-86
2023/03/10 06:14:45;;;;;;;38.20;14.25;;;;;;;12.44;100.00;96513.84;5118917;27;20059;-88
2023/03/10 06:17:11;;;;;;;31.17;14.60;;;;;;;12.68;100.00;96516.22;5115836;27;20026;-87
2023/03/10 06:19:36;;;;;;;29.63;16.20;;;;;;;13.04;100.00;96518.41;5106621;27;20402;-88
2023/03/10 06:22:02;;;;;;;46.28;19.02;;;;;;;13.19;100.00;96508.16;5107753;27;20031;-89
2023/03/10 06:24:28;;;;;;;36.17;16.80;;;;;;;13.48;100.00;96511.78;5116146;27;20035;-88
2023/03/10 06:26:53;;;;;;;24.63;13.50;;;;;;;13.45;100.00;96504.00;5098703;27;20490;-88
2023/03/10 06:29:19;;;;;;;30.23;14.80;;;;;;;13.08;100.00;96495.69;5135025;27;20096;-89
2023/03/10 06:31:44;;;;;;;31.60;14.68;;;;;;;13.45;100.00;96498.63;5111910;27;20038;-87
2023/03/10 06:34:10;;;;;;;35.90;17.25;;;;;;;13.29;100.00;96488.41;5128935;27;20042;-87
2023/03/10 06:36:39;;;;;;;35.08;17.77;;;;;;;12.93;100.00;96497.00;5111050;27;20068;-88
2023/03/10 06:39:05;;;;;;;41.25;19.52;;;;;;;13.05;100.00;96495.91;5127824;27;20087;-88
2023/03/10 06:41:30;;;;;;;64.00;35.50;;;;;;;13.13;100.00;96496.16;5116457;27;20031;-89
2023/03/10 06:43:56;;;;;;;70.55;36.40;;;;;;;13.30;100.00;96487.41;5109033;27;20474;-88
2023/03/10 06:46:21;;;;;;;57.88;33.55;;;;;;;13.14;100.00;96487.09;5102140;28;20023;-87
2023/03/10 06:48:48;;;;;;;52.10;31.02;;;;;;;12.96;100.00;96486.00;5112395;27;20058;-88
2023/03/10 06:51:17;;;;;;;51.05;27.58;;;;;;;13.02;100.00;96488.16;5102229;27;20027;-88
2023/03/10 06:53:42;;;;;;;55.15;30.65;;;;;;;12.89;100.00;96477.63;5118448;28;20054;-87
2023/03/10 06:56:12;;;;;;;42.53;19.45;;;;;;;12.95;100.00;96495.88;5106853;28;20027;-86
2023/03/10 06:58:38;;;;;;;43.00;25.02;;;;;;;13.00;100.00;96487.44;5113537;28;20470;-85
2023/03/10 07:01:05;;;;;;;45.97;25.60;;;;;;;13.01;100.00;96478.41;5106058;28;20463;-86
2023/03/10 07:03:30;;;;;;;55.08;27.48;;;;;;;13.33;100.00;96475.53;5110900;28;20055;-88
2023/03/10 07:05:59;;;;;;;78.35;37.13;;;;;;;13.36;100.00;96467.22;5121140;28;20636;-85
2023/03/10 07:08:26;;;;;;;59.60;28.38;;;;;;;13.60;100.00;96488.34;5114520;28;20030;-87
2023/03/10 07:10:52;;;;;;;44.97;21.65;;;;;;;13.50;100.00;96464.97;5130627;27;20090;-87
2023/03/10 07:13:18;;;;;;;40.83;18.67;;;;;;;13.65;100.00;96470.81;5127209;28;20050;-88
2023/03/10 07:15:44;;;;;;;39.75;18.00;;;;;;;13.81;100.00;96479.13;5137101;27;20084;-87
2023/03/10 07:18:11;;;;;;;43.70;18.60;;;;;;;13.92;100.00;96480.84;5103054;28;20023;-86
2023/03/10 07:20:39;;;;;;;27.10;15.00;;;;;;;13.99;100.00;96479.28;5135626;27;20117;-87
2023/03/10 07:23:04;;;;;;;27.63;13.57;;;;;;;14.03;100.00;96488.75;5143368;27;20144;-88
2023/03/10 07:25:34;;;;;;;29.23;14.27;;;;;;;14.05;100.00;96484.09;5118091;28;20031;-89
2023/03/10 07:27:59;;;;;;;29.45;14.38;;;;;;;13.98;100.00;96466.84;5123417;28;20586;-87
2023/03/10 07:30:25;;;;;;;22.42;10.10;;;;;;;14.10;100.00;96471.06;5114891;27;20050;-89
2023/03/10 07:32:53;;;;;;;16.10;8.80;;;;;;;14.33;100.00;96459.06;5116150;28;20109;-87
2023/03/10 07:35:19;;;;;;;16.42;8.88;;;;;;;14.46;100.00;96475.72;5139862;27;20102;-88
2023/03/10 07:37:44;;;;;;;17.40;8.18;;;;;;;14.50;100.00;96474.44;5110852;28;20111;-87
2023/03/10 07:40:10;;;;;;;21.13;8.88;;;;;;;15.07;100.00;96459.06;5113223;28;20030;-87
2023/03/10 07:42:36;;;;;;;22.83;10.38;;;;;;;15.38;100.00;96462.31;5129683;28;20034;-88
2023/03/10 07:45:03;;;;;;;14.23;9.10;;;;;;;15.80;100.00;96460.78;5128634;28;20418;-89
2023/03/10 07:47:29;;;;;;;16.42;10.43;;;;;;;16.15;99.10;96452.66;5098970;28;20038;-89
2023/03/10 07:49:54;;;;;;;20.52;10.32;;;;;;;16.29;97.22;96448.56;5126352;28;20027;-88
2023/03/10 07:52:20;;;;;;;20.77;9.75;;;;;;;16.34;96.41;96434.56;5114483;28;20031;-88
2023/03/10 07:54:45;;;;;;;22.08;10.55;;;;;;;16.76;92.72;96436.41;5142021;27;20496;-88
2023/03/10 07:57:12;;;;;;;24.88;12.77;;;;;;;16.83;91.49;96441.19;5106628;28;20521;-88
2023/03/10 07:59:38;;;;;;;19.65;11.23;;;;;;;17.27;86.57;96423.81;5108572;27;20045;-88
2023/03/10 08:02:04;;;;;;;17.48;10.18;;;;;;;17.38;85.71;96415.38;5146271;27;20029;-88
2023/03/10 08:04:30;;;;;;;20.58;9.90;;;;;;;17.62;84.77;96418.22;5121770;28;20408;-87
2023/03/10 08:06:55;;;;;;;22.80;9.13;;;;;;;17.84;81.67;96397.78;5111812;28;20027;-88
2023/03/10 08:09:21;;;;;;;21.00;9.23;;;;;;;17.73;82.46;96396.22;5167148;27;20114;-87
2023/03/10 08:11:46;;;;;;;17.33;8.77;;;;;;;17.80;81.72;96383.75;5110480;27;20478;-87
2023/03/10 08:14:12;;;;;;;23.63;8.43;;;;;;;17.94;81.39;96374.09;5101080;27;20050;-87
2023/03/10 08:16:38;;;;;;;19.65;7.90;;;;;;;18.31;79.35;96368.13;5152728;27;20027;-87
2023/03/10 08:19:03;;;;;;;29.08;13.27;;;;;;;18.72;77.28;96358.94;5134921;27;20427;-87
2023/03/10 08:21:29;;;;;;;20.73;9.48;;;;;;;18.66;78.07;96351.53;5124796;27;20474;-86
2023/03/10 08:23:54;;;;;;;24.50;15.35;;;;;;;18.18;79.06;96349.72;5104560;27;20047;-86
2023/03/10 08:26:20;;;;;;;36.05;12.95;;;;;;;17.94;81.35;96343.47;5107528;27;20554;-86
2023/03/10 08:28:46;;;;;;;27.98;10.95;;;;;;;17.86;81.93;96349.75;5105314;27;20363;-89
2023/03/10 08:31:19;;;;;;;18.13;7.78;;;;;;;18.20;79.95;96341.44;5144586;27;20026;-88
2023/03/10 08:33:45;;;;;;;17.20;7.80;;;;;;;18.28;78.41;96317.03;5117244;27;20054;-88
2023/03/10 08:36:22;;;;;;;12.38;7.30;;;;;;;18.54;77.37;96309.56;5106899;27;20118;-89
2023/03/10 08:38:50;;;;;;;17.75;7.53;;;;;;;18.99;75.07;96319.72;5123678;27;20106;-89
2023/03/10 08:41:20;;;;;;;16.40;6.75;;;;;;;19.17;72.47;96304.03;5133672;27;20023;-88
2023/03/10 08:43:46;;;;;;;16.15;7.28;;;;;;;19.70;68.96;96283.34;5121152;27;20474;-87
2023/03/10 08:46:12;;;;;;;14.63;6.60;;;;;;;20.17;65.39;96277.66;5104029;27;20023;-89
2023/03/10 08:48:38;;;;;;;18.27;5.80;;;;;;;20.26;61.42;96263.00;5110473;27;20402;-88
2023/03/10 08:51:05;;;;;;;11.38;5.80;;;;;;;20.53;59.51;96259.63;5119894;27;20030;-87
2023/03/10 08:53:32;;;;;;;8.88;4.88;;;;;;;20.75;57.91;96258.66;5119414;27;20019;-85
2023/03/10 08:55:57;;;;;;;7.75;4.35;;;;;;;20.71;58.42;96251.91;5105054;27;20086;-86
2023/03/10 08:58:23;;;;;;;8.77;4.32;;;;;;;20.95;56.14;96246.16;5134112;27;20062;-88
2023/03/10 09:00:49;;;;;;;9.23;4.03;;;;;;;20.71;55.00;96240.19;5116237;27;20027;-89
2023/03/10 09:03:14;;;;;;;8.32;4.25;;;;;;;21.20;53.97;96248.53;5113794;27;20180;-88
2023/03/10 09:05:40;;;;;;;10.82;4.75;;;;;;;22.00;52.24;96244.53;5116783;27;20151;-88
2023/03/10 09:08:06;;;;;;;9.48;4.35;;;;;;;22.74;50.04;96242.09;5099474;27;20084;-89
2023/03/10 09:10:34;;;;;;;10.52;5.53;;;;;;;22.93;48.13;96230.44;5099194;27;20106;-87
2023/03/10 09:12:59;;;;;;;10.10;5.25;;;;;;;23.07;45.98;96215.78;5102578;27;20102;-88
2023/03/10 09:15:25;;;;;;;9.27;5.25;;;;;;;23.09;45.98;96219.19;5124776;27;20027;-88
2023/03/10 09:17:50;;;;;;;11.93;3.97;;;;;;;23.02;44.98;96196.47;5134749;27;20030;-89
2023/03/10 09:20:16;;;;;;;8.18;2.83;;;;;;;22.62;45.11;96190.00;5159195;27;20031;-88
2023/03/10 09:22:42;;;;;;;2.35;1.15;;;;;;;21.47;44.78;96172.44;5114853;27;20126;-87
2023/03/10 09:25:09;;;;;;;2.28;1.40;;;;;;;20.61;46.58;96163.59;5116338;27;20467;-88
2023/03/10 09:27:34;;;;;;;2.17;1.10;;;;;;;20.22;47.36;96163.88;5116042;27;20564;-88
2023/03/10 09:30:00;;;;;;;7.93;1.38;;;;;;;19.85;48.43;96171.09;5107756;27;20061;-88
2023/03/10 09:32:26;;;;;;;1.95;1.40;;;;;;;19.58;49.04;96169.00;5116240;27;20031;-88
2023/03/10 09:34:52;;;;;;;12.95;6.78;;;;;;;19.34;50.23;96175.47;5107666;27;20390;-87
2023/03/10 09:37:17;;;;;;;4.03;1.73;;;;;;;19.20;50.29;96180.81;5112835;27;20023;-87
2023/03/10 09:39:43;;;;;;;3.17;1.73;;;;;;;18.84;51.22;96161.59;5099711;27;20068;-87
2023/03/10 09:42:41;;;;;;;0.77;0.77;;;;;;;18.53;52.35;96167.06;5133571;27;20538;-87
2023/03/10 09:45:16;;;;;;;2.78;1.63;;;;;;;18.45;54.14;96174.34;5105724;27;20075;-88
2023/03/10 09:47:57;;;;;;;2.05;1.45;;;;;;;18.38;55.17;96176.91;5108013;27;20061;-87
2023/03/10 09:50:22;;;;;;;2.13;1.15;;;;;;;18.27;55.85;96174.59;5132903;27;20027;-87
2023/03/10 09:53:09;;;;;;;3.92;2.25;;;;;;;18.21;56.14;96169.91;5119360;27;20034;-88
2023/03/10 09:55:43;;;;;;;4.18;1.40;;;;;;;18.11;56.18;96170.09;5117427;27;20080;-88
2023/03/10 09:58:26;;;;;;;8.38;2.95;;;;;;;18.09;56.58;96160.47;5116308;27;20114;-87
2023/03/10 10:00:51;;;;;;;4.40;2.00;;;;;;;18.01;56.52;96160.50;5143417;27;20023;-90
2023/03/10 10:03:30;;;;;;;3.30;1.38;;;;;;;17.94;57.22;96157.63;5119937;27;20375;-87
2023/03/10 10:05:56;;;;;;;3.35;1.75;;;;;;;17.84;57.57;96133.50;5098564;27;20015;-87
2023/03/10 10:08:26;;;;;;;3.47;2.00;;;;;;;17.77;57.89;96129.81;5116298;27;20505;-87
2023/03/10 10:10:56;;;;;;;2.92;1.20;;;;;;;17.68;58.14;96125.44;5115059;27;20019;-87
2023/03/10 10:13:25;;;;;;;4.88;1.90;;;;;;;17.86;57.96;96127.91;5098306;27;20019;-87
2023/03/10 10:16:03;;;;;;;1.50;1.20;;;;;;;17.87;57.23;96114.19;5098887;27;20035;-88
2023/03/10 10:18:38;;;;;;;4.38;1.45;;;;;;;17.83;57.30;96102.06;5109097;27;20027;-86
2023/03/10 10:21:15;;;;;;;3.35;1.30;;;;;;;17.93;56.58;96101.00;5121582;27;20530;-87
2023/03/10 10:23:45;;;;;;;1.70;0.90;;;;;;;18.03;56.35;96107.88;5079695;28;20052;-87
2023/03/10 10:26:16;;;;;;;8.35;3.70;;;;;;;17.91;57.06;96097.63;5092124;28;20055;-88
2023/03/10 10:28:52;;;;;;;3.05;1.15;;;;;;;18.02;56.31;96099.94;5090711;28;20046;-88
2023/03/10 10:31:20;;;;;;;16.15;8.30;;;;;;;18.14;56.78;96110.22;5073374;28;20035;-86
2023/03/10 10:34:19;;;;;;;4.78;2.53;;;;;;;18.28;55.96;96097.78;5090177;28;20027;-86
2023/03/10 10:36:50;;;;;;;6.30;1.73;;;;;;;18.28;56.38;96105.91;5060662;28;20039;-86
2023/03/10 10:39:24;;;;;;;1.43;0.93;;;;;;;18.26;55.46;96092.56;5091292;28;20034;-86
2023/03/10 10:41:50;;;;;;;3.42;1.30;;;;;;;18.20;55.81;96079.72;5074155;28;20043;-87
2023/03/10 10:44:16;;;;;;;2.88;1.50;;;;;;;18.23;56.07;96089.34;5090840;28;20462;-86
2023/03/10 10:46:56;;;;;;;4.15;1.88;;;;;;;18.28;56.32;96086.94;5073577;28;20077;-88
2023/03/10 10:49:26;;;;;;;5.13;2.22;;;;;;;18.35;56.15;96083.34;5090474;28;20042;-88
2023/03/10 10:51:57;;;;;;;2.90;1.42;;;;;;;18.39;55.48;96081.13;5090761;28;20466;-89
2023/03/10 10:54:40;;;;;;;4.95;1.60;;;;;;;18.28;55.89;96078.81;5074394;28;20506;-87
2023/03/10 10:57:18;;;;;;;3.15;1.80;;;;;;;18.19;56.25;96078.03;5074031;28;20058;-87
2023/03/10 10:59:43;;;;;;;4.32;2.13;;;;;;;18.23;56.25;96073.13;5074360;28;20550;-87
2023/03/10 11:02:31;;;;;;;5.22;2.10;;;;;;;18.33;56.18;96073.75;5073944;28;20064;-88
2023/03/10 11:05:12;;;;;;;3.10;1.88;;;;;;;18.23;55.99;96046.03;5090698;28;20099;-88
2023/03/10 11:07:38;;;;;;;3.85;2.10;;;;;;;18.37;56.68;96062.34;5092544;28;20466;-88
2023/03/10 11:10:19;;;;;;;9.82;2.20;;;;;;;18.23;56.60;96049.59;5090959;28;20829;-86
2023/03/10 11:13:03;;;;;;;4.97;2.08;;;;;;;18.19;56.61;96048.25;5071167;28;20028;-88
2023/03/10 11:15:34;;;;;;;5.20;2.08;;;;;;;18.26;56.44;96046.53;5090765;28;20082;-88
2023/03/10 11:18:03;;;;;;;2.80;1.67;;;;;;;18.27;55.88;96039.25;5091593;28;20016;-87
2023/03/10 11:20:39;;;;;;;2.70;1.60;;;;;;;18.24;55.93;96028.78;5074221;28;20059;-86
2023/03/10 11:23:08;;;;;;;3.15;1.70;;;;;;;18.23;55.33;96037.94;5086170;28;20579;-84
2023/03/10 11:25:48;;;;;;;3.28;1.95;;;;;;;18.23;54.94;96035.22;5115242;27;20511;-86
2023/03/10 11:28:45;;;;;;;5.78;1.58;;;;;;;18.21;55.18;96042.69;5108265;27;20023;-88